sensor_id;sensor_type;location;lat;lon;timestamp;temperature;humidity
21353;DHT22;10834;52.268;6.770;2023-09-30T00:00:21;11.30;99.90
21353;DHT22;10834;52.268;6.770;2023-09-30T00:03:05;11.30;99.90
21353;DHT22;10834;52.268;6.770;2023-09-30T00:05:49;11.30;99.90
21353;DHT22;10834;52.268;6.770;2023-09-30T00:08:34;11.40;99.90
21353;DHT22;10834;52.268;6.770;2023-09-30T00:11:18;11.30;99.90
21353;DHT22;10834;52.268;6.770;2023-09-30T00:14:02;11.40;99.90
21353;DHT22;10834;52.268;6.770;2023-09-30T00:16:47;11.40;99.90
21353;DHT22;10834;52.268;6.770;2023-09-30T00:19:31;11.40;99.90
21353;DHT22;10834;52.268;6.770;2023-09-30T00:22:17;11.40;99.90
21353;DHT22;10834;52.268;6.770;2023-09-30T00:25:01;11.40;99.90
21353;DHT22;10834;52.268;6.770;2023-09-30T00:27:45;11.40;99.90
21353;DHT22;10834;52.268;6.770;2023-09-30T00:30:29;11.40;99.90
21353;DHT22;10834;52.268;6.770;2023-09-30T00:33:13;11.40;99.90
21353;DHT22;10834;52.268;6.770;2023-09-30T00:35:57;11.40;99.90
21353;DHT22;10834;52.268;6.770;2023-09-30T00:38:41;11.40;99.90
21353;DHT22;10834;52.268;6.770;2023-09-30T00:41:25;11.40;99.90
21353;DHT22;10834;52.268;6.770;2023-09-30T00:44:09;11.40;99.90
21353;DHT22;10834;52.268;6.770;2023-09-30T00:46:54;11.50;99.90
21353;DHT22;10834;52.268;6.770;2023-09-30T00:49:39;11.50;99.90
21353;DHT22;10834;52.268;6.770;2023-09-30T00:52:23;11.50;99.90
21353;DHT22;10834;52.268;6.770;2023-09-30T00:55:08;11.50;99.90
21353;DHT22;10834;52.268;6.770;2023-09-30T00:57:52;11.50;99.90
21353;DHT22;10834;52.268;6.770;2023-09-30T01:00:37;11.50;99.90
21353;DHT22;10834;52.268;6.770;2023-09-30T01:03:22;11.60;99.90
21353;DHT22;10834;52.268;6.770;2023-09-30T01:06:06;11.50;99.90
21353;DHT22;10834;52.268;6.770;2023-09-30T01:08:50;11.60;99.90
21353;DHT22;10834;52.268;6.770;2023-09-30T01:11:36;11.60;99.90
21353;DHT22;10834;52.268;6.770;2023-09-30T01:14:28;11.60;99.90
21353;DHT22;10834;52.268;6.770;2023-09-30T01:17:12;11.60;99.90
21353;DHT22;10834;52.268;6.770;2023-09-30T01:19:58;11.60;99.90
21353;DHT22;10834;52.268;6.770;2023-09-30T01:22:49;11.60;99.90
21353;DHT22;10834;52.268;6.770;2023-09-30T01:25:34;11.70;99.90
21353;DHT22;10834;52.268;6.770;2023-09-30T01:28:19;11.70;99.90
21353;DHT22;10834;52.268;6.770;2023-09-30T01:31:03;11.60;99.90
21353;DHT22;10834;52.268;6.770;2023-09-30T01:33:48;11.70;99.90
21353;DHT22;10834;52.268;6.770;2023-09-30T01:36:32;11.70;99.90
21353;DHT22;10834;52.268;6.770;2023-09-30T01:39:16;11.70;99.90
21353;DHT22;10834;52.268;6.770;2023-09-30T01:42:01;11.70;99.90
21353;DHT22;10834;52.268;6.770;2023-09-30T01:44:45;11.70;99.90
21353;DHT22;10834;52.268;6.770;2023-09-30T01:47:29;11.60;99.90
21353;DHT22;10834;52.268;6.770;2023-09-30T01:50:13;11.60;99.90
21353;DHT22;10834;52.268;6.770;2023-09-30T01:52:57;11.60;99.90
21353;DHT22;10834;52.268;6.770;2023-09-30T01:55:41;11.50;99.90
21353;DHT22;10834;52.268;6.770;2023-09-30T01:58:25;11.50;99.90
21353;DHT22;10834;52.268;6.770;2023-09-30T02:01:09;11.50;99.90
21353;DHT22;10834;52.268;6.770;2023-09-30T02:03:53;11.40;99.90
21353;DHT22;10834;52.268;6.770;2023-09-30T02:06:37;11.40;99.90
21353;DHT22;10834;52.268;6.770;2023-09-30T02:09:21;11.40;99.90
21353;DHT22;10834;52.268;6.770;2023-09-30T02:12:05;11.40;99.90
21353;DHT22;10834;52.268;6.770;2023-09-30T02:14:52;11.40;99.90
21353;DHT22;10834;52.268;6.770;2023-09-30T02:17:36;11.30;99.90
21353;DHT22;10834;52.268;6.770;2023-09-30T02:20:21;11.30;99.90
21353;DHT22;10834;52.268;6.770;2023-09-30T02:23:10;11.30;99.90
21353;DHT22;10834;52.268;6.770;2023-09-30T02:25:57;11.30;99.90
21353;DHT22;10834;52.268;6.770;2023-09-30T02:28:42;11.30;99.90
21353;DHT22;10834;52.268;6.770;2023-09-30T02:31:26;11.30;99.90
21353;DHT22;10834;52.268;6.770;2023-09-30T02:34:10;11.20;99.90
21353;DHT22;10834;52.268;6.770;2023-09-30T02:36:54;11.30;99.90
21353;DHT22;10834;52.268;6.770;2023-09-30T02:39:39;11.20;99.90
21353;DHT22;10834;52.268;6.770;2023-09-30T02:42:24;11.20;99.90
21353;DHT22;10834;52.268;6.770;2023-09-30T02:45:10;11.30;99.90
21353;DHT22;10834;52.268;6.770;2023-09-30T02:47:54;11.30;99.90
21353;DHT22;10834;52.268;6.770;2023-09-30T02:50:38;11.30;99.90
21353;DHT22;10834;52.268;6.770;2023-09-30T02:53:24;11.30;99.90
21353;DHT22;10834;52.268;6.770;2023-09-30T02:56:08;11.30;99.90
21353;DHT22;10834;52.268;6.770;2023-09-30T02:58:52;11.30;99.90
21353;DHT22;10834;52.268;6.770;2023-09-30T03:01:36;11.30;99.90
21353;DHT22;10834;52.268;6.770;2023-09-30T03:04:21;11.30;99.90
21353;DHT22;10834;52.268;6.770;2023-09-30T03:07:10;11.30;99.90
21353;DHT22;10834;52.268;6.770;2023-09-30T03:09:54;11.30;99.90
21353;DHT22;10834;52.268;6.770;2023-09-30T03:12:38;11.30;99.90
21353;DHT22;10834;52.268;6.770;2023-09-30T03:15:22;11.30;99.90
21353;DHT22;10834;52.268;6.770;2023-09-30T03:18:07;11.30;99.90
21353;DHT22;10834;52.268;6.770;2023-09-30T03:20:52;11.20;99.90
21353;DHT22;10834;52.268;6.770;2023-09-30T03:23:40;11.20;99.90
21353;DHT22;10834;52.268;6.770;2023-09-30T03:26:25;11.20;99.90
21353;DHT22;10834;52.268;6.770;2023-09-30T03:29:09;11.10;99.90
21353;DHT22;10834;52.268;6.770;2023-09-30T03:31:53;11.10;99.90
21353;DHT22;10834;52.268;6.770;2023-09-30T03:34:37;11.10;99.90
21353;DHT22;10834;52.268;6.770;2023-09-30T03:37:21;11.10;99.90
21353;DHT22;10834;52.268;6.770;2023-09-30T03:40:06;11.10;99.90
21353;DHT22;10834;52.268;6.770;2023-09-30T03:43:03;11.10;99.90
21353;DHT22;10834;52.268;6.770;2023-09-30T03:45:47;11.10;99.90
21353;DHT22;10834;52.268;6.770;2023-09-30T03:48:31;11.00;99.90
21353;DHT22;10834;52.268;6.770;2023-09-30T03:51:16;11.00;99.90
21353;DHT22;10834;52.268;6.770;2023-09-30T03:54:00;11.00;99.90
21353;DHT22;10834;52.268;6.770;2023-09-30T03:56:47;11.00;99.90
21353;DHT22;10834;52.268;6.770;2023-09-30T03:59:31;11.00;99.90
21353;DHT22;10834;52.268;6.770;2023-09-30T04:02:15;11.00;99.90
21353;DHT22;10834;52.268;6.770;2023-09-30T04:05:00;11.00;99.90
21353;DHT22;10834;52.268;6.770;2023-09-30T04:07:47;11.00;99.90
21353;DHT22;10834;52.268;6.770;2023-09-30T04:10:31;11.00;99.90
21353;DHT22;10834;52.268;6.770;2023-09-30T04:13:15;11.00;99.90
21353;DHT22;10834;52.268;6.770;2023-09-30T04:16:01;11.00;99.90
21353;DHT22;10834;52.268;6.770;2023-09-30T04:18:45;11.00;99.90
21353;DHT22;10834;52.268;6.770;2023-09-30T04:21:30;11.00;99.90
21353;DHT22;10834;52.268;6.770;2023-09-30T04:24:18;10.90;99.90
21353;DHT22;10834;52.268;6.770;2023-09-30T04:27:03;10.90;99.90
21353;DHT22;10834;52.268;6.770;2023-09-30T04:29:49;11.00;99.90
21353;DHT22;10834;52.268;6.770;2023-09-30T04:32:38;10.90;99.90
21353;DHT22;10834;52.268;6.770;2023-09-30T04:35:22;11.00;99.90
21353;DHT22;10834;52.268;6.770;2023-09-30T04:38:06;11.00;99.90
21353;DHT22;10834;52.268;6.770;2023-09-30T04:40:51;11.00;99.90
21353;DHT22;10834;52.268;6.770;2023-09-30T04:43:35;11.00;99.90
21353;DHT22;10834;52.268;6.770;2023-09-30T04:46:23;11.10;99.90
21353;DHT22;10834;52.268;6.770;2023-09-30T04:49:08;11.10;99.90
21353;DHT22;10834;52.268;6.770;2023-09-30T04:51:52;11.10;99.90
21353;DHT22;10834;52.268;6.770;2023-09-30T04:54:36;11.10;99.90
21353;DHT22;10834;52.268;6.770;2023-09-30T04:57:20;11.10;99.90
21353;DHT22;10834;52.268;6.770;2023-09-30T05:00:06;11.10;99.90
21353;DHT22;10834;52.268;6.770;2023-09-30T05:02:56;11.10;99.90
21353;DHT22;10834;52.268;6.770;2023-09-30T05:05:41;11.10;99.90
21353;DHT22;10834;52.268;6.770;2023-09-30T05:08:26;11.10;99.90
21353;DHT22;10834;52.268;6.770;2023-09-30T05:11:10;11.10;99.90
21353;DHT22;10834;52.268;6.770;2023-09-30T05:13:54;11.00;99.90
21353;DHT22;10834;52.268;6.770;2023-09-30T05:16:38;11.10;99.90
21353;DHT22;10834;52.268;6.770;2023-09-30T05:19:22;11.10;99.90
21353;DHT22;10834;52.268;6.770;2023-09-30T05:22:06;11.00;99.90
21353;DHT22;10834;52.268;6.770;2023-09-30T05:24:51;11.10;99.90
21353;DHT22;10834;52.268;6.770;2023-09-30T05:27:36;11.10;99.90
21353;DHT22;10834;52.268;6.770;2023-09-30T05:30:20;11.10;99.90
21353;DHT22;10834;52.268;6.770;2023-09-30T05:33:04;11.10;99.90
21353;DHT22;10834;52.268;6.770;2023-09-30T05:35:48;11.10;99.90
21353;DHT22;10834;52.268;6.770;2023-09-30T05:38:32;11.10;99.90
21353;DHT22;10834;52.268;6.770;2023-09-30T05:41:16;11.10;99.90
21353;DHT22;10834;52.268;6.770;2023-09-30T05:44:00;11.00;99.90
21353;DHT22;10834;52.268;6.770;2023-09-30T05:46:45;11.00;99.90
21353;DHT22;10834;52.268;6.770;2023-09-30T05:49:29;11.10;99.90
21353;DHT22;10834;52.268;6.770;2023-09-30T05:52:13;11.10;99.90
21353;DHT22;10834;52.268;6.770;2023-09-30T05:54:57;11.20;99.90
21353;DHT22;10834;52.268;6.770;2023-09-30T05:57:44;11.20;99.90
21353;DHT22;10834;52.268;6.770;2023-09-30T06:00:28;11.20;99.90
21353;DHT22;10834;52.268;6.770;2023-09-30T06:03:14;11.20;99.90
21353;DHT22;10834;52.268;6.770;2023-09-30T06:05:59;11.30;99.90
21353;DHT22;10834;52.268;6.770;2023-09-30T06:08:44;11.30;99.90
21353;DHT22;10834;52.268;6.770;2023-09-30T06:11:31;11.30;99.90
21353;DHT22;10834;52.268;6.770;2023-09-30T06:14:16;11.40;99.90
21353;DHT22;10834;52.268;6.770;2023-09-30T06:17:00;11.40;99.90
21353;DHT22;10834;52.268;6.770;2023-09-30T06:19:45;11.50;99.90
21353;DHT22;10834;52.268;6.770;2023-09-30T06:22:31;11.50;99.90
21353;DHT22;10834;52.268;6.770;2023-09-30T06:25:16;11.60;99.90
21353;DHT22;10834;52.268;6.770;2023-09-30T06:28:00;11.60;99.90
21353;DHT22;10834;52.268;6.770;2023-09-30T06:30:45;11.70;99.90
21353;DHT22;10834;52.268;6.770;2023-09-30T06:33:30;11.80;99.90
21353;DHT22;10834;52.268;6.770;2023-09-30T06:36:14;11.90;99.90
21353;DHT22;10834;52.268;6.770;2023-09-30T06:38:59;12.00;99.90
21353;DHT22;10834;52.268;6.770;2023-09-30T06:41:43;12.00;99.90
21353;DHT22;10834;52.268;6.770;2023-09-30T06:44:27;12.10;99.90
21353;DHT22;10834;52.268;6.770;2023-09-30T06:47:12;12.20;99.90
21353;DHT22;10834;52.268;6.770;2023-09-30T06:49:56;12.30;99.90
21353;DHT22;10834;52.268;6.770;2023-09-30T06:52:41;12.40;99.90
21353;DHT22;10834;52.268;6.770;2023-09-30T06:55:26;12.50;99.90
21353;DHT22;10834;52.268;6.770;2023-09-30T06:58:13;12.60;99.90
21353;DHT22;10834;52.268;6.770;2023-09-30T07:00:57;12.70;99.90
21353;DHT22;10834;52.268;6.770;2023-09-30T07:03:41;12.70;99.90
21353;DHT22;10834;52.268;6.770;2023-09-30T07:06:25;12.90;99.90
21353;DHT22;10834;52.268;6.770;2023-09-30T07:09:10;13.00;99.90
21353;DHT22;10834;52.268;6.770;2023-09-30T07:11:56;13.10;99.90
21353;DHT22;10834;52.268;6.770;2023-09-30T07:14:40;13.20;99.90
21353;DHT22;10834;52.268;6.770;2023-09-30T07:17:24;13.30;99.90
21353;DHT22;10834;52.268;6.770;2023-09-30T07:20:08;13.40;99.90
21353;DHT22;10834;52.268;6.770;2023-09-30T07:22:53;13.50;99.90
21353;DHT22;10834;52.268;6.770;2023-09-30T07:25:37;13.70;99.90
21353;DHT22;10834;52.268;6.770;2023-09-30T07:28:21;13.80;99.90
21353;DHT22;10834;52.268;6.770;2023-09-30T07:31:05;14.00;99.90
21353;DHT22;10834;52.268;6.770;2023-09-30T07:33:50;14.10;99.90
21353;DHT22;10834;52.268;6.770;2023-09-30T07:36:34;14.30;99.90
21353;DHT22;10834;52.268;6.770;2023-09-30T07:39:18;14.40;99.90
21353;DHT22;10834;52.268;6.770;2023-09-30T07:42:03;14.60;99.90
21353;DHT22;10834;52.268;6.770;2023-09-30T07:44:47;14.80;99.90
21353;DHT22;10834;52.268;6.770;2023-09-30T07:47:32;14.90;99.90
21353;DHT22;10834;52.268;6.770;2023-09-30T07:50:19;15.20;99.90
21353;DHT22;10834;52.268;6.770;2023-09-30T07:53:03;15.50;99.90
21353;DHT22;10834;52.268;6.770;2023-09-30T07:55:47;16.10;99.90
21353;DHT22;10834;52.268;6.770;2023-09-30T07:58:32;17.00;99.90
21353;DHT22;10834;52.268;6.770;2023-09-30T08:01:17;19.50;99.90
21353;DHT22;10834;52.268;6.770;2023-09-30T08:04:02;22.50;99.90
21353;DHT22;10834;52.268;6.770;2023-09-30T08:06:46;24.70;99.90
21353;DHT22;10834;52.268;6.770;2023-09-30T08:09:31;26.60;94.50
21353;DHT22;10834;52.268;6.770;2023-09-30T08:12:15;28.20;82.00
21353;DHT22;10834;52.268;6.770;2023-09-30T08:14:59;29.30;67.90
21353;DHT22;10834;52.268;6.770;2023-09-30T08:17:43;30.20;62.10
21353;DHT22;10834;52.268;6.770;2023-09-30T08:20:28;31.00;57.80
21353;DHT22;10834;52.268;6.770;2023-09-30T08:23:12;31.80;55.50
21353;DHT22;10834;52.268;6.770;2023-09-30T08:25:59;32.40;53.50
21353;DHT22;10834;52.268;6.770;2023-09-30T08:28:44;32.30;52.30
21353;DHT22;10834;52.268;6.770;2023-09-30T08:31:28;31.70;50.60
21353;DHT22;10834;52.268;6.770;2023-09-30T08:34:12;32.30;51.10
21353;DHT22;10834;52.268;6.770;2023-09-30T08:36:58;33.20;50.10
21353;DHT22;10834;52.268;6.770;2023-09-30T08:39:42;33.90;48.60
21353;DHT22;10834;52.268;6.770;2023-09-30T08:42:32;34.50;48.10
21353;DHT22;10834;52.268;6.770;2023-09-30T08:45:18;34.80;46.30
21353;DHT22;10834;52.268;6.770;2023-09-30T08:48:03;35.30;46.30
21353;DHT22;10834;52.268;6.770;2023-09-30T08:50:50;35.70;46.00
21353;DHT22;10834;52.268;6.770;2023-09-30T08:53:35;35.70;42.90
21353;DHT22;10834;52.268;6.770;2023-09-30T08:56:25;34.70;43.40
21353;DHT22;10834;52.268;6.770;2023-09-30T08:59:11;33.50;44.50
21353;DHT22;10834;52.268;6.770;2023-09-30T09:01:55;33.60;45.10
21353;DHT22;10834;52.268;6.770;2023-09-30T09:04:40;34.20;46.00
21353;DHT22;10834;52.268;6.770;2023-09-30T09:07:24;35.00;45.90
21353;DHT22;10834;52.268;6.770;2023-09-30T09:10:10;35.40;44.80
21353;DHT22;10834;52.268;6.770;2023-09-30T09:12:56;35.80;44.70
21353;DHT22;10834;52.268;6.770;2023-09-30T09:15:41;36.00;44.00
21353;DHT22;10834;52.268;6.770;2023-09-30T09:18:32;36.40;44.00
21353;DHT22;10834;52.268;6.770;2023-09-30T09:21:23;36.50;43.80
21353;DHT22;10834;52.268;6.770;2023-09-30T09:24:09;36.40;43.00
21353;DHT22;10834;52.268;6.770;2023-09-30T09:27:24;36.40;43.60
21353;DHT22;10834;52.268;6.770;2023-09-30T09:30:16;35.60;43.10
21353;DHT22;10834;52.268;6.770;2023-09-30T09:35:48;33.30;45.30
21353;DHT22;10834;52.268;6.770;2023-09-30T09:38:49;32.00;47.60
21353;DHT22;10834;52.268;6.770;2023-09-30T09:41:52;31.00;49.90
21353;DHT22;10834;52.268;6.770;2023-09-30T09:44:36;31.70;49.70
21353;DHT22;10834;52.268;6.770;2023-09-30T09:47:22;31.80;48.00
21353;DHT22;10834;52.268;6.770;2023-09-30T09:50:07;30.80;49.90
21353;DHT22;10834;52.268;6.770;2023-09-30T09:52:54;29.40;51.10
21353;DHT22;10834;52.268;6.770;2023-09-30T09:55:39;28.10;53.90
21353;DHT22;10834;52.268;6.770;2023-09-30T09:58:27;27.20;56.80
21353;DHT22;10834;52.268;6.770;2023-09-30T10:01:11;26.70;58.30
21353;DHT22;10834;52.268;6.770;2023-09-30T10:03:56;26.20;59.40
21353;DHT22;10834;52.268;6.770;2023-09-30T10:06:41;25.90;62.30
21353;DHT22;10834;52.268;6.770;2023-09-30T10:09:27;25.90;65.30
21353;DHT22;10834;52.268;6.770;2023-09-30T10:12:12;25.70;67.90
21353;DHT22;10834;52.268;6.770;2023-09-30T10:14:57;25.40;70.60
21353;DHT22;10834;52.268;6.770;2023-09-30T10:18:03;25.40;71.40
21353;DHT22;10834;52.268;6.770;2023-09-30T10:20:48;25.50;75.80
21353;DHT22;10834;52.268;6.770;2023-09-30T10:23:33;25.20;74.10
21353;DHT22;10834;52.268;6.770;2023-09-30T10:26:18;25.10;76.00
21353;DHT22;10834;52.268;6.770;2023-09-30T10:29:09;25.20;77.40
21353;DHT22;10834;52.268;6.770;2023-09-30T10:31:53;25.00;79.80
21353;DHT22;10834;52.268;6.770;2023-09-30T10:34:38;25.10;83.40
21353;DHT22;10834;52.268;6.770;2023-09-30T10:37:25;25.10;79.10
21353;DHT22;10834;52.268;6.770;2023-09-30T10:40:10;24.80;81.00
21353;DHT22;10834;52.268;6.770;2023-09-30T10:49:17;23.00;87.80
21353;DHT22;10834;52.268;6.770;2023-09-30T10:52:22;22.80;93.00
21353;DHT22;10834;52.268;6.770;2023-09-30T10:55:08;22.60;94.70
21353;DHT22;10834;52.268;6.770;2023-09-30T10:57:52;22.50;98.40
21353;DHT22;10834;52.268;6.770;2023-09-30T11:00:36;22.40;99.90
21353;DHT22;10834;52.268;6.770;2023-09-30T11:03:22;22.20;99.10
21353;DHT22;10834;52.268;6.770;2023-09-30T11:06:07;22.40;99.90
21353;DHT22;10834;52.268;6.770;2023-09-30T11:08:54;22.80;98.80
21353;DHT22;10834;52.268;6.770;2023-09-30T11:11:43;22.80;96.50
21353;DHT22;10834;52.268;6.770;2023-09-30T11:14:32;22.70;98.70
21353;DHT22;10834;52.268;6.770;2023-09-30T11:17:22;22.60;98.30
21353;DHT22;10834;52.268;6.770;2023-09-30T11:20:08;22.60;96.40
21353;DHT22;10834;52.268;6.770;2023-09-30T11:22:53;22.70;97.40
21353;DHT22;10834;52.268;6.770;2023-09-30T11:25:38;22.80;98.30
21353;DHT22;10834;52.268;6.770;2023-09-30T11:28:24;23.00;98.50
21353;DHT22;10834;52.268;6.770;2023-09-30T11:31:11;22.90;97.30
21353;DHT22;10834;52.268;6.770;2023-09-30T11:33:57;23.10;96.10
21353;DHT22;10834;52.268;6.770;2023-09-30T11:36:49;23.20;89.20
21353;DHT22;10834;52.268;6.770;2023-09-30T11:39:34;23.30;90.70
21353;DHT22;10834;52.268;6.770;2023-09-30T11:42:18;23.40;89.90
21353;DHT22;10834;52.268;6.770;2023-09-30T11:45:19;23.70;91.70
21353;DHT22;10834;52.268;6.770;2023-09-30T11:48:19;23.90;92.20
21353;DHT22;10834;52.268;6.770;2023-09-30T11:51:04;23.80;88.90
21353;DHT22;10834;52.268;6.770;2023-09-30T11:53:49;23.70;89.40
21353;DHT22;10834;52.268;6.770;2023-09-30T11:56:34;23.70;91.00
21353;DHT22;10834;52.268;6.770;2023-09-30T11:59:18;23.70;90.90
21353;DHT22;10834;52.268;6.770;2023-09-30T12:02:03;23.70;87.70
21353;DHT22;10834;52.268;6.770;2023-09-30T12:04:49;23.60;85.20
21353;DHT22;10834;52.268;6.770;2023-09-30T12:07:33;23.70;81.50
21353;DHT22;10834;52.268;6.770;2023-09-30T12:10:17;23.60;87.50
21353;DHT22;10834;52.268;6.770;2023-09-30T12:13:01;23.60;87.80
21353;DHT22;10834;52.268;6.770;2023-09-30T12:15:46;23.30;86.10
21353;DHT22;10834;52.268;6.770;2023-09-30T12:18:30;23.20;88.10
21353;DHT22;10834;52.268;6.770;2023-09-30T12:21:14;23.00;89.40
21353;DHT22;10834;52.268;6.770;2023-09-30T12:23:58;22.80;88.60
21353;DHT22;10834;52.268;6.770;2023-09-30T12:26:44;22.50;88.80
21353;DHT22;10834;52.268;6.770;2023-09-30T12:29:32;22.30;89.60
21353;DHT22;10834;52.268;6.770;2023-09-30T12:32:16;22.20;93.40
21353;DHT22;10834;52.268;6.770;2023-09-30T12:35:00;22.10;93.90
21353;DHT22;10834;52.268;6.770;2023-09-30T12:37:45;22.00;93.60
21353;DHT22;10834;52.268;6.770;2023-09-30T12:40:29;21.90;93.80
21353;DHT22;10834;52.268;6.770;2023-09-30T12:43:13;21.90;94.80
21353;DHT22;10834;52.268;6.770;2023-09-30T12:45:58;21.90;99.80
21353;DHT22;10834;52.268;6.770;2023-09-30T12:48:43;22.00;99.90
21353;DHT22;10834;52.268;6.770;2023-09-30T12:51:29;22.20;97.50
21353;DHT22;10834;52.268;6.770;2023-09-30T12:54:13;22.50;97.40
21353;DHT22;10834;52.268;6.770;2023-09-30T12:56:58;22.80;96.10
21353;DHT22;10834;52.268;6.770;2023-09-30T12:59:43;22.90;92.70
21353;DHT22;10834;52.268;6.770;2023-09-30T13:02:30;22.80;93.10
21353;DHT22;10834;52.268;6.770;2023-09-30T13:05:14;22.40;86.60
21353;DHT22;10834;52.268;6.770;2023-09-30T13:08:00;22.30;90.10
21353;DHT22;10834;52.268;6.770;2023-09-30T13:10:45;22.10;86.10
21353;DHT22;10834;52.268;6.770;2023-09-30T13:13:30;21.80;86.20
21353;DHT22;10834;52.268;6.770;2023-09-30T13:16:15;21.70;91.60
21353;DHT22;10834;52.268;6.770;2023-09-30T13:18:59;21.50;89.70
21353;DHT22;10834;52.268;6.770;2023-09-30T13:21:43;21.40;90.00
21353;DHT22;10834;52.268;6.770;2023-09-30T13:24:28;21.40;95.30
21353;DHT22;10834;52.268;6.770;2023-09-30T13:27:12;21.40;93.80
21353;DHT22;10834;52.268;6.770;2023-09-30T13:30:00;21.40;95.50
21353;DHT22;10834;52.268;6.770;2023-09-30T13:32:45;21.30;92.00
21353;DHT22;10834;52.268;6.770;2023-09-30T13:35:30;21.20;85.90
21353;DHT22;10834;52.268;6.770;2023-09-30T13:38:14;20.90;85.70
21353;DHT22;10834;52.268;6.770;2023-09-30T13:41:00;20.60;87.40
21353;DHT22;10834;52.268;6.770;2023-09-30T13:43:45;20.60;91.50
21353;DHT22;10834;52.268;6.770;2023-09-30T13:46:30;20.50;92.80
21353;DHT22;10834;52.268;6.770;2023-09-30T13:49:14;20.40;93.20
21353;DHT22;10834;52.268;6.770;2023-09-30T13:51:58;20.40;95.40
21353;DHT22;10834;52.268;6.770;2023-09-30T13:54:42;20.30;96.50
21353;DHT22;10834;52.268;6.770;2023-09-30T13:57:26;20.20;96.10
21353;DHT22;10834;52.268;6.770;2023-09-30T14:00:11;20.20;99.10
21353;DHT22;10834;52.268;6.770;2023-09-30T14:02:55;20.10;99.80
21353;DHT22;10834;52.268;6.770;2023-09-30T14:05:39;19.90;96.40
21353;DHT22;10834;52.268;6.770;2023-09-30T14:08:24;19.80;99.10
21353;DHT22;10834;52.268;6.770;2023-09-30T14:11:09;19.70;99.90
21353;DHT22;10834;52.268;6.770;2023-09-30T14:13:55;19.60;99.90
21353;DHT22;10834;52.268;6.770;2023-09-30T14:16:39;19.40;99.90
21353;DHT22;10834;52.268;6.770;2023-09-30T14:19:23;19.30;99.90
21353;DHT22;10834;52.268;6.770;2023-09-30T14:22:07;19.30;99.90
21353;DHT22;10834;52.268;6.770;2023-09-30T14:24:52;19.30;99.90
21353;DHT22;10834;52.268;6.770;2023-09-30T14:27:36;19.30;99.90
21353;DHT22;10834;52.268;6.770;2023-09-30T14:30:20;19.30;99.90
21353;DHT22;10834;52.268;6.770;2023-09-30T14:33:05;19.30;99.90
21353;DHT22;10834;52.268;6.770;2023-09-30T14:35:49;19.30;99.90
21353;DHT22;10834;52.268;6.770;2023-09-30T14:38:33;19.30;99.90
21353;DHT22;10834;52.268;6.770;2023-09-30T14:41:17;19.30;99.90
21353;DHT22;10834;52.268;6.770;2023-09-30T14:44:02;19.40;99.90
21353;DHT22;10834;52.268;6.770;2023-09-30T14:46:48;19.50;99.90
21353;DHT22;10834;52.268;6.770;2023-09-30T14:49:32;19.50;99.90
21353;DHT22;10834;52.268;6.770;2023-09-30T14:52:16;19.50;99.90
21353;DHT22;10834;52.268;6.770;2023-09-30T14:55:01;19.70;99.90
21353;DHT22;10834;52.268;6.770;2023-09-30T14:57:45;19.80;99.90
21353;DHT22;10834;52.268;6.770;2023-09-30T15:00:29;19.80;99.90
21353;DHT22;10834;52.268;6.770;2023-09-30T15:03:13;19.80;99.90
21353;DHT22;10834;52.268;6.770;2023-09-30T15:05:58;19.80;99.90
21353;DHT22;10834;52.268;6.770;2023-09-30T15:08:43;19.70;99.90
21353;DHT22;10834;52.268;6.770;2023-09-30T15:11:27;19.60;99.90
21353;DHT22;10834;52.268;6.770;2023-09-30T15:14:12;19.40;99.90
21353;DHT22;10834;52.268;6.770;2023-09-30T15:16:56;19.30;99.90
21353;DHT22;10834;52.268;6.770;2023-09-30T15:19:40;19.20;99.90
21353;DHT22;10834;52.268;6.770;2023-09-30T15:22:24;19.10;99.90
21353;DHT22;10834;52.268;6.770;2023-09-30T15:25:08;19.10;99.90
21353;DHT22;10834;52.268;6.770;2023-09-30T15:27:53;19.00;99.90
21353;DHT22;10834;52.268;6.770;2023-09-30T15:30:37;18.90;99.90
21353;DHT22;10834;52.268;6.770;2023-09-30T15:33:22;18.80;99.90
21353;DHT22;10834;52.268;6.770;2023-09-30T15:36:10;18.70;99.90
21353;DHT22;10834;52.268;6.770;2023-09-30T15:38:54;18.60;99.90
21353;DHT22;10834;52.268;6.770;2023-09-30T15:41:38;18.50;99.90
21353;DHT22;10834;52.268;6.770;2023-09-30T15:44:22;18.40;99.90
21353;DHT22;10834;52.268;6.770;2023-09-30T15:47:08;18.20;99.90
21353;DHT22;10834;52.268;6.770;2023-09-30T15:49:52;18.20;99.90
21353;DHT22;10834;52.268;6.770;2023-09-30T15:52:36;18.10;99.90
21353;DHT22;10834;52.268;6.770;2023-09-30T15:55:21;18.00;99.90
21353;DHT22;10834;52.268;6.770;2023-09-30T15:58:05;17.90;99.90
21353;DHT22;10834;52.268;6.770;2023-09-30T16:00:50;17.80;99.90
21353;DHT22;10834;52.268;6.770;2023-09-30T16:03:35;17.70;99.90
21353;DHT22;10834;52.268;6.770;2023-09-30T16:06:19;17.60;99.90
21353;DHT22;10834;52.268;6.770;2023-09-30T16:09:04;17.50;99.90
21353;DHT22;10834;52.268;6.770;2023-09-30T16:11:48;17.50;99.90
21353;DHT22;10834;52.268;6.770;2023-09-30T16:14:32;17.40;99.90
21353;DHT22;10834;52.268;6.770;2023-09-30T16:17:17;17.30;99.90
21353;DHT22;10834;52.268;6.770;2023-09-30T16:20:01;17.30;99.90
21353;DHT22;10834;52.268;6.770;2023-09-30T16:22:48;17.30;99.90
21353;DHT22;10834;52.268;6.770;2023-09-30T16:25:33;17.30;99.90
21353;DHT22;10834;52.268;6.770;2023-09-30T16:28:18;17.30;99.90
21353;DHT22;10834;52.268;6.770;2023-09-30T16:31:03;17.40;99.90
21353;DHT22;10834;52.268;6.770;2023-09-30T16:33:47;17.40;99.90
21353;DHT22;10834;52.268;6.770;2023-09-30T16:36:32;17.40;99.90
21353;DHT22;10834;52.268;6.770;2023-09-30T16:39:17;17.40;99.90
21353;DHT22;10834;52.268;6.770;2023-09-30T16:42:01;17.40;99.90
21353;DHT22;10834;52.268;6.770;2023-09-30T16:44:46;17.30;99.90
21353;DHT22;10834;52.268;6.770;2023-09-30T16:47:30;17.20;99.90
21353;DHT22;10834;52.268;6.770;2023-09-30T16:50:14;17.10;99.90
21353;DHT22;10834;52.268;6.770;2023-09-30T16:52:58;17.00;99.90
21353;DHT22;10834;52.268;6.770;2023-09-30T16:55:43;16.90;99.90
21353;DHT22;10834;52.268;6.770;2023-09-30T16:58:27;16.90;99.90
21353;DHT22;10834;52.268;6.770;2023-09-30T17:01:11;16.90;99.90
21353;DHT22;10834;52.268;6.770;2023-09-30T17:03:56;16.80;99.90
21353;DHT22;10834;52.268;6.770;2023-09-30T17:06:42;16.70;99.90
21353;DHT22;10834;52.268;6.770;2023-09-30T17:09:26;16.70;99.90
21353;DHT22;10834;52.268;6.770;2023-09-30T17:12:10;16.70;99.90
21353;DHT22;10834;52.268;6.770;2023-09-30T17:14:55;16.70;99.90
21353;DHT22;10834;52.268;6.770;2023-09-30T17:17:39;16.60;99.90
21353;DHT22;10834;52.268;6.770;2023-09-30T17:20:23;16.60;99.90
21353;DHT22;10834;52.268;6.770;2023-09-30T17:23:07;16.60;99.90
21353;DHT22;10834;52.268;6.770;2023-09-30T17:25:51;16.60;99.90
21353;DHT22;10834;52.268;6.770;2023-09-30T17:28:35;16.50;99.90
21353;DHT22;10834;52.268;6.770;2023-09-30T17:31:20;16.60;99.90